MSC Annamaria — H3HN — position and weather

sailwx.info

Track history (hours):
 
Tides and Currents Weather Stations Pressure Air Temp Water Temp Dewpoint Dewpoint Depression Visibility Wind Speed Wind Dir Waves Ship Positions

MSC Annamaria

Last reported at 2017-Jan-17 16:32 UTC. Time now 2017-Jan-18 12:11 UTC.
Position N 33°55' E 035°25'.

Length 188 m; draft 8.5 m.

Type: Ship (hazmat cat A). MMSI: 353852000.

Date/timePositionNaut miles runAvg speedWind from/ knotsBaromVisibWave heightAir tempDewpointWater temp
2017-Jan-17 16:32N 33°55' E 035°25'1212.6
2017-Jan-17 15:33N 33°56' E 035°11'1212.3
2017-Jan-17 14:33N 34°03' E 034°58'1211.8
2017-Jan-17 13:34N 34°09' E 034°46'7111.8
2017-Jan-17 07:33N 34°29' E 033°23'5 5.3
2017-Jan-17 06:34N 34°33' E 033°19'1211.8
2017-Jan-17 05:34N 34°37' E 033°06'5 4.3
2017-Jan-17 04:28N 34°39' E 033°01'0 0.0
2017-Jan-17 03:32N 34°39' E 033°01'0 0.0
2017-Jan-17 02:33N 34°39' E 033°01'0 0.0
2017-Jan-17 01:32N 34°39' E 033°01'0 0.0
2017-Jan-17 00:26N 34°39' E 033°01'0 0.0
2017-Jan-16 23:28N 34°39' E 033°01'0 0.0
2017-Jan-16 22:33N 34°39' E 033°01'0 0.0
2017-Jan-16 21:32N 34°39' E 033°01'0 0.0
2017-Jan-16 20:32N 34°39' E 033°01'0 0.0
2017-Jan-16 19:33N 34°39' E 033°01'0 0.0
2017-Jan-16 18:31N 34°39' E 033°01'0 0.0
2017-Jan-16 17:33N 34°39' E 033°01'0 0.0
2017-Jan-16 16:33N 34°39' E 033°01'0 0.0
2017-Jan-16 15:31N 34°39' E 033°01'0 0.0
2017-Jan-16 14:30N 34°39' E 033°01'0 0.0
2017-Jan-16 13:31N 34°39' E 033°01'0 0.0
2017-Jan-16 12:32N 34°39' E 033°01'0 0.0
2017-Jan-16 11:31N 34°39' E 033°01'0 0.0
2017-Jan-16 10:31N 34°39' E 033°01'0 0.0
2017-Jan-16 09:31N 34°39' E 033°01'0 0.0
2017-Jan-16 08:32N 34°39' E 033°01'0 0.0
2017-Jan-16 07:32N 34°39' E 033°01'0 0.0
2017-Jan-16 06:32N 34°39' E 033°01'0 0.0
2017-Jan-16 05:32N 34°39' E 033°01'1 1.3
2017-Jan-16 04:33N 34°39' E 033°02'2 1.9
2017-Jan-16 03:31N 34°40' E 033°04'0 0.0
2017-Jan-16 02:28N 34°40' E 033°04'0 0.0
2017-Jan-16 01:33N 34°40' E 033°04'0 0.0
2017-Jan-16 00:33N 34°40' E 033°04'0 0.0
2017-Jan-15 23:31N 34°40' E 033°04'0 0.0
2017-Jan-15 22:30N 34°40' E 033°04'0 0.0
2017-Jan-15 21:33N 34°40' E 033°04'0 0.0
2017-Jan-15 20:32N 34°40' E 033°04'0 0.0
2017-Jan-15 19:30N 34°40' E 033°04'0 0.0
2017-Jan-15 18:33N 34°40' E 033°04'0 0.0
2017-Jan-15 17:29N 34°40' E 033°04'0 0.1
2017-Jan-15 16:31N 34°40' E 033°04'0 0.0
2017-Jan-15 15:30N 34°40' E 033°04'0 0.0
2017-Jan-15 14:30N 34°40' E 033°04'0 0.0
2017-Jan-15 13:32N 34°40' E 033°04'0 0.0
2017-Jan-15 12:25N 34°40' E 033°04'0 0.0
2017-Jan-15 11:33N 34°40' E 033°04'0 0.0
2017-Jan-15 10:32N 34°40' E 033°04'0 0.0
2017-Jan-15 09:31N 34°40' E 033°04'0 0.0
2017-Jan-15 08:32N 34°40' E 033°04'0 0.0
2017-Jan-15 07:32N 34°40' E 033°04'0 0.1
2017-Jan-15 06:24N 34°40' E 033°04'0 0.0
2017-Jan-15 05:32N 34°40' E 033°04'0 0.0
2017-Jan-15 04:27N 34°40' E 033°04'0 0.0
2017-Jan-15 03:32N 34°40' E 033°04'0 0.0
2017-Jan-15 02:31N 34°40' E 033°04'0 0.0
2017-Jan-15 01:33N 34°40' E 033°04'0 0.0
2017-Jan-15 00:32N 34°40' E 033°04'0 0.0
2017-Jan-14 23:33N 34°40' E 033°04'2 1.9
2017-Jan-14 22:33N 34°38' E 033°04'1212.0
2017-Jan-14 21:33N 34°27' E 032°59'1514.0
2017-Jan-14 20:30N 34°18' E 032°45'  
2017-Jan-11 20:00N 54°06' W 178°30'   070 / 181016.0 3.0 4.0
Track history (hours):
 
Tides and Currents Weather Stations Pressure Air Temp Water Temp Dewpoint Dewpoint Depression Visibility Wind Speed Wind Dir Waves Ship Positions

MSC Annamaria

Last reported at 2017-Jan-17 16:32 UTC. Time now 2017-Jan-18 12:11 UTC.
Position N 33°55' E 035°25'.

Length 188 m; draft 8.5 m.

Type: Ship (hazmat cat A). MMSI: 353852000.

Date/timePositionNaut miles runAvg speedWind from/ knotsBaromVisibWave heightAir tempDewpointWater temp
2017-Jan-17 16:32N 33°55' E 035°25'1212.6
2017-Jan-17 15:33N 33°56' E 035°11'1212.3
2017-Jan-17 14:33N 34°03' E 034°58'1211.8
2017-Jan-17 13:34N 34°09' E 034°46'7111.8
2017-Jan-17 07:33N 34°29' E 033°23'5 5.3
2017-Jan-17 06:34N 34°33' E 033°19'1211.8
2017-Jan-17 05:34N 34°37' E 033°06'5 4.3
2017-Jan-17 04:28N 34°39' E 033°01'0 0.0
2017-Jan-17 03:32N 34°39' E 033°01'0 0.0
2017-Jan-17 02:33N 34°39' E 033°01'0 0.0
2017-Jan-17 01:32N 34°39' E 033°01'0 0.0
2017-Jan-17 00:26N 34°39' E 033°01'0 0.0
2017-Jan-16 23:28N 34°39' E 033°01'0 0.0
2017-Jan-16 22:33N 34°39' E 033°01'0 0.0
2017-Jan-16 21:32N 34°39' E 033°01'0 0.0
2017-Jan-16 20:32N 34°39' E 033°01'0 0.0
2017-Jan-16 19:33N 34°39' E 033°01'0 0.0
2017-Jan-16 18:31N 34°39' E 033°01'0 0.0
2017-Jan-16 17:33N 34°39' E 033°01'0 0.0
2017-Jan-16 16:33N 34°39' E 033°01'0 0.0
2017-Jan-16 15:31N 34°39' E 033°01'0 0.0
2017-Jan-16 14:30N 34°39' E 033°01'0 0.0
2017-Jan-16 13:31N 34°39' E 033°01'0 0.0
2017-Jan-16 12:32N 34°39' E 033°01'0 0.0
2017-Jan-16 11:31N 34°39' E 033°01'0 0.0
2017-Jan-16 10:31N 34°39' E 033°01'0 0.0
2017-Jan-16 09:31N 34°39' E 033°01'0 0.0
2017-Jan-16 08:32N 34°39' E 033°01'0 0.0
2017-Jan-16 07:32N 34°39' E 033°01'0 0.0
2017-Jan-16 06:32N 34°39' E 033°01'0 0.0
2017-Jan-16 05:32N 34°39' E 033°01'1 1.3
2017-Jan-16 04:33N 34°39' E 033°02'2 1.9
2017-Jan-16 03:31N 34°40' E 033°04'0 0.0
2017-Jan-16 02:28N 34°40' E 033°04'0 0.0
2017-Jan-16 01:33N 34°40' E 033°04'0 0.0
2017-Jan-16 00:33N 34°40' E 033°04'0 0.0
2017-Jan-15 23:31N 34°40' E 033°04'0 0.0
2017-Jan-15 22:30N 34°40' E 033°04'0 0.0
2017-Jan-15 21:33N 34°40' E 033°04'0 0.0
2017-Jan-15 20:32N 34°40' E 033°04'0 0.0
2017-Jan-15 19:30N 34°40' E 033°04'0 0.0
2017-Jan-15 18:33N 34°40' E 033°04'0 0.0
2017-Jan-15 17:29N 34°40' E 033°04'0 0.1
2017-Jan-15 16:31N 34°40' E 033°04'0 0.0
2017-Jan-15 15:30N 34°40' E 033°04'0 0.0
2017-Jan-15 14:30N 34°40' E 033°04'0 0.0
2017-Jan-15 13:32N 34°40' E 033°04'0 0.0
2017-Jan-15 12:25N 34°40' E 033°04'0 0.0
2017-Jan-15 11:33N 34°40' E 033°04'0 0.0
2017-Jan-15 10:32N 34°40' E 033°04'0 0.0
2017-Jan-15 09:31N 34°40' E 033°04'0 0.0
2017-Jan-15 08:32N 34°40' E 033°04'0 0.0
2017-Jan-15 07:32N 34°40' E 033°04'0 0.1
2017-Jan-15 06:24N 34°40' E 033°04'0 0.0
2017-Jan-15 05:32N 34°40' E 033°04'0 0.0
2017-Jan-15 04:27N 34°40' E 033°04'0 0.0
2017-Jan-15 03:32N 34°40' E 033°04'0 0.0
2017-Jan-15 02:31N 34°40' E 033°04'0 0.0
2017-Jan-15 01:33N 34°40' E 033°04'0 0.0
2017-Jan-15 00:32N 34°40' E 033°04'0 0.0
2017-Jan-14 23:33N 34°40' E 033°04'2 1.9
2017-Jan-14 22:33N 34°38' E 033°04'1212.0
2017-Jan-14 21:33N 34°27' E 032°59'1514.0
2017-Jan-14 20:30N 34°18' E 032°45'  
2017-Jan-11 20:00N 54°06' W 178°30'   070 / 181016.0 3.0 4.0

Dump ship's entire track history